London Airport
CYXU : now visible

Airfield :











YOU CAN JOIN US ON...

 
LOGIN :

Register | Disclaimer

   EN    FR    IT 

 









Legend :    VFR   Marginal VFR   IFR   Intensive IFR   Very Intensive IFR
Visi :
Ceiling :
>= 8 km
>= 3000ft
5 to 8 km
1000 to 3000 ft
1500m to 5 km
500 to 1000 ft
800 to 1500m
200 to 500 ft
< 800m
< 200 ft
Symbols :   Thunderstorms  Fog  Heavy snow  Heavy precipitations  Wind > 20 kt






- Airport Elevation : 912 ft
- IATA code : YXU


CYXU - London

CURRENT METAR :
  • 271400Z 24008KT 15SM FEW015 BKN074 BKN120 05/03 A3025 RMK SF1AC4AC2 SLP253

EXPIRED METARs :
  • 271300Z 24005KT 15SM FEW015 BKN072 OVC110 05/03 A3024 RMK SC1AC5AC2 SLP251
  • 271200Z 24007KT 15SM FEW025 FEW074 OVC110 04/03 A3024 RMK SC1AC2AC6 SC TR SLP250

TAF TAF CYXU
Valid from the 27 at 12:00 until the 28 at 12:00 UTC


271140Z 2712/2812 22005KT P6SM FEW070
FM271300 25010KT P6SM SCT020 BKN080
TEMPO 2713/2716 BKN020 BKN080
FM271700 25010KT P6SM -SHRA SCT020 OVC030
TEMPO 2717/2722 5SM -SHRA BR SCT008 OVC020
FM272200 24008KT P6SM SCT008 BKN020 BKN050
FM281000 25008KT P6SM BKN015 RMK NXT FCST BY 271800Z
CZYZ FIR / North America



MET'MAP, your aeronautical weather chart ! - Copyright ORBIFLY December 2007 - Disclaimer

ORBIFLY MET'MAP TEAM :

Programming & Development : Alexandra Zaïnal
Concept & original design : Baudouin d'Aumeries
Assistance for programming : Marc-Olivier Méhu
Technical & hardware support : Manuel Goepfert

Contact : metmap@orbifly.com




SOURCES & CREDITS :

   NOAA       Earth
Advisory